CYZR

Sarnia Chris Hadfield Airport

Sarnia, , Canada
METAR CYZR 190537Z AUTO 01008KT 9SM -RA BKN095 OVC120 17/15 A2998 RMK SLP153 DENSITY ALT 900FT
Observed Flight Rules
Sep-19 @ 05:37 UTC (9 minutes ago) Visual Flight Rules
Wind Visibility Clouds Conditions
10° at 8 knots 9 miles
  • Broken at 9,500' AGL
  • Overcast at 12,000' AGL
  • Light Rain
Temperatures Readings
Current 17°C / 63°F
Dewpoint 15°C / 59°F
Humidity 88%
Altimeter 29.98" Hg
Pressure 1015.3 hPa
Elevation 181
METAR CYZR 190537Z AUTO 01008KT 9SM -RA BKN095 OVC120 17/15 A2998 RMK SLP153 DENSITY ALT 900FT
Observed Flight Rules
Sep-19 @ 05:37 UTC
(9 minutes ago)
VFR
Wind Visibility
10° at 8 knots 9 miles
Clouds
  • Broken at 9,500' AGL
  • Overcast at 12,000' AGL
Conditions
  • Light Rain
Temperature Dewpoint
17°C / 63°F 15°C / 59°F
Humidity Altimeter Pressure
88% 29.98" Hg 1015.3 hPa